Time;durP1;ratioP1;P1;durP2;ratioP2;P2;SDS_P1;SDS_P2;PMS_P1;PMS_P2;Temp;Humidity;BMP_temperature;BMP_pressure;BME280_temperature;BME280_humidity;BME280_pressure;Samples;Min_cycle;Max_cycle;Signal;HPM_P1;HPM_P2
2023/12/12 00:02:00;;;;;;;7.72;1.30;;;;;;;6.93;79.20;99948.03;5001857;28;20056;-82
2023/12/12 00:04:27;;;;;;;5.45;1.27;;;;;;;6.87;79.29;99956.78;5000780;28;20077;-81
2023/12/12 00:06:54;;;;;;;4.70;1.50;;;;;;;6.83;79.45;99954.22;4994527;28;20059;-79
2023/12/12 00:09:21;;;;;;;6.80;1.60;;;;;;;6.85;79.58;99948.13;4997903;28;20049;-81
2023/12/12 00:11:48;;;;;;;3.88;1.25;;;;;;;6.89;79.36;99946.31;5000713;28;20080;-82
2023/12/12 00:14:15;;;;;;;6.85;1.52;;;;;;;6.69;79.37;99951.69;4991417;28;20046;-83
2023/12/12 00:16:42;;;;;;;7.50;1.10;;;;;;;6.65;79.91;99943.03;5004801;28;20045;-82
2023/12/12 00:19:09;;;;;;;9.23;1.80;;;;;;;6.72;79.72;99934.28;4972622;28;20052;-82
2023/12/12 00:21:36;;;;;;;7.70;1.20;;;;;;;6.66;79.92;99933.47;5001293;28;20390;-83
2023/12/12 00:24:03;;;;;;;9.38;1.27;;;;;;;6.72;79.71;99933.41;5001984;28;20137;-82
2023/12/12 00:26:30;;;;;;;6.63;1.50;;;;;;;6.77;80.16;99942.06;5000550;28;20045;-80
2023/12/12 00:28:57;;;;;;;10.10;1.27;;;;;;;6.68;80.36;99935.19;4980532;28;20072;-81
2023/12/12 00:31:24;;;;;;;7.70;1.70;;;;;;;7.02;79.65;99936.66;5001779;28;20052;-82
2023/12/12 00:33:51;;;;;;;6.75;1.58;;;;;;;6.91;79.33;99942.84;4973986;28;20050;-82
2023/12/12 00:36:18;;;;;;;6.50;1.30;;;;;;;7.03;79.55;99943.63;4986503;28;20327;-82
2023/12/12 00:38:45;;;;;;;6.13;1.38;;;;;;;6.97;79.60;99940.16;5004432;28;20479;-81
2023/12/12 00:41:11;;;;;;;5.93;1.38;;;;;;;7.04;79.33;99941.00;5000604;28;20037;-81
2023/12/12 00:43:40;;;;;;;13.15;1.60;;;;;;;7.03;79.29;99947.09;4992445;28;20137;-81
2023/12/12 00:46:10;;;;;;;4.82;1.40;;;;;;;7.05;79.35;99947.94;5020806;28;20612;-80
2023/12/12 00:48:37;;;;;;;9.90;1.70;;;;;;;6.83;79.63;99956.81;5013275;28;20056;-81
2023/12/12 00:51:07;;;;;;;6.55;1.23;;;;;;;6.57;80.38;99948.28;5002470;28;20109;-82
2023/12/12 00:53:34;;;;;;;3.70;1.80;;;;;;;6.48;80.56;99950.09;5008461;28;20056;-81
2023/12/12 00:56:01;;;;;;;5.10;1.40;;;;;;;6.39;80.91;99945.81;5006270;28;20117;-81
2023/12/12 00:58:28;;;;;;;9.73;1.45;;;;;;;6.72;80.87;99943.84;5010186;28;20128;-82
2023/12/12 01:00:55;;;;;;;9.30;1.58;;;;;;;6.52;80.12;99941.41;5010827;28;20497;-81
2023/12/12 01:03:22;;;;;;;10.23;2.08;;;;;;;6.12;81.29;99944.22;4996608;28;20084;-82
2023/12/12 01:05:49;;;;;;;9.60;1.70;;;;;;;6.40;81.19;99947.53;4995805;28;20132;-82
2023/12/12 01:08:16;;;;;;;10.35;1.83;;;;;;;6.16;81.65;99938.97;4997710;28;20061;-81
2023/12/12 01:10:43;;;;;;;5.60;1.75;;;;;;;6.13;81.96;99941.59;5006138;28;20072;-81
2023/12/12 01:13:10;;;;;;;6.82;1.88;;;;;;;6.07;82.09;99933.81;4999560;28;20068;-82
2023/12/12 01:15:37;;;;;;;6.78;1.80;;;;;;;6.02;82.17;99936.41;5015634;28;20049;-80
2023/12/12 01:18:04;;;;;;;6.47;1.30;;;;;;;6.01;82.61;99933.81;4990810;28;20072;-82
2023/12/12 01:20:31;;;;;;;7.53;1.25;;;;;;;5.97;82.66;99921.66;4998740;28;20053;-81
2023/12/12 01:22:58;;;;;;;7.82;1.77;;;;;;;5.92;82.88;99922.56;5003348;28;20076;-81
2023/12/12 01:25:25;;;;;;;4.80;1.20;;;;;;;5.97;82.78;99916.44;5009647;28;20054;-81
2023/12/12 01:27:52;;;;;;;9.15;1.55;;;;;;;5.90;83.09;99913.88;5015514;28;20050;-82
2023/12/12 01:30:19;;;;;;;4.68;1.20;;;;;;;5.82;83.01;99912.19;5007548;28;20080;-81
2023/12/12 01:32:46;;;;;;;7.57;1.20;;;;;;;5.82;83.01;99907.84;5010688;28;20053;-81
2023/12/12 01:35:14;;;;;;;11.75;1.40;;;;;;;5.70;83.50;99905.28;4995326;28;20050;-81
2023/12/12 01:37:41;;;;;;;4.43;1.48;;;;;;;5.77;83.54;99913.94;5008390;28;20061;-82
2023/12/12 01:40:09;;;;;;;3.97;1.13;;;;;;;5.75;83.84;99906.16;4989895;28;20064;-82
2023/12/12 01:42:35;;;;;;;4.68;1.30;;;;;;;5.75;83.73;99906.16;5023000;28;20041;-80
2023/12/12 01:45:03;;;;;;;5.95;1.95;;;;;;;5.86;83.55;99912.16;5001939;28;20053;-81
2023/12/12 01:47:29;;;;;;;6.45;1.73;;;;;;;5.96;83.05;99912.13;5019009;28;20157;-81
2023/12/12 01:49:57;;;;;;;7.20;1.48;;;;;;;5.95;83.12;99918.19;4999225;28;20068;-82
2023/12/12 01:52:24;;;;;;;9.60;1.60;;;;;;;5.92;82.94;99917.34;5012477;28;20080;-81
2023/12/12 01:54:51;;;;;;;9.88;1.38;;;;;;;5.89;82.94;99919.97;4996329;28;20048;-81
2023/12/12 01:57:19;;;;;;;8.15;1.30;;;;;;;5.93;83.14;99918.22;4995968;28;20133;-80
2023/12/12 01:59:46;;;;;;;8.18;1.52;;;;;;;5.96;82.84;99919.94;5018465;28;20326;-80
2023/12/12 02:02:16;;;;;;;6.05;1.20;;;;;;;5.90;82.89;99926.91;4994663;28;20080;-82
2023/12/12 02:04:47;;;;;;;9.43;1.75;;;;;;;5.82;83.04;99915.66;5009992;28;20136;-81
2023/12/12 02:07:15;;;;;;;6.93;1.40;;;;;;;5.81;83.17;99916.53;4981027;28;20065;-82
2023/12/12 02:09:43;;;;;;;6.32;1.00;;;;;;;5.73;83.42;99910.47;4997373;28;20046;-82
2023/12/12 02:12:10;;;;;;;5.03;1.20;;;;;;;5.70;84.13;99905.28;4984698;28;20129;-81
2023/12/12 02:14:37;;;;;;;5.82;1.45;;;;;;;5.65;84.30;99914.84;5003050;28;20050;-81
2023/12/12 02:17:04;;;;;;;3.25;1.30;;;;;;;5.63;84.75;99908.78;4975567;28;20053;-81
2023/12/12 02:19:31;;;;;;;4.78;1.55;;;;;;;5.57;85.20;99894.91;5002095;28;20057;-82
2023/12/12 02:21:58;;;;;;;9.63;1.42;;;;;;;5.57;85.12;99896.66;4998852;28;20119;-81
2023/12/12 02:24:26;;;;;;;7.45;1.45;;;;;;;5.45;85.41;99899.31;5008498;28;20072;-82
2023/12/12 02:26:52;;;;;;;6.45;1.38;;;;;;;5.45;85.53;99904.50;5005113;28;20094;-82
2023/12/12 02:29:19;;;;;;;7.60;1.27;;;;;;;5.39;85.82;99898.44;5013408;28;20073;-82
2023/12/12 02:31:46;;;;;;;10.18;1.70;;;;;;;5.34;86.12;99891.50;5004545;28;20105;-81
2023/12/12 02:34:13;;;;;;;6.47;1.45;;;;;;;5.32;86.29;99898.47;4996071;28;20050;-81
2023/12/12 02:36:40;;;;;;;6.68;1.40;;;;;;;5.29;86.55;99882.88;5002669;28;20065;-81
2023/12/12 02:39:07;;;;;;;5.40;1.25;;;;;;;5.22;86.65;99890.66;4997833;28;20054;-80
2023/12/12 02:41:33;;;;;;;8.13;1.50;;;;;;;5.26;86.46;99890.66;5001136;28;20046;-81
2023/12/12 02:44:00;;;;;;;8.90;1.60;;;;;;;5.35;86.70;99895.84;4980368;28;20054;-81
2023/12/12 02:46:27;;;;;;;9.45;1.50;;;;;;;5.32;86.69;99895.88;5017163;28;20057;-81
2023/12/12 02:48:54;;;;;;;5.00;1.38;;;;;;;5.30;86.56;99905.38;4994352;28;20057;-80
2023/12/12 02:51:21;;;;;;;4.75;1.10;;;;;;;5.33;86.33;99888.06;4999490;28;20072;-82
2023/12/12 02:53:48;;;;;;;6.65;2.00;;;;;;;5.31;86.71;99886.31;5001774;28;20050;-80
2023/12/12 02:56:15;;;;;;;7.47;1.20;;;;;;;5.33;86.76;99879.34;4987474;28;20053;-82
2023/12/12 02:58:42;;;;;;;6.97;1.60;;;;;;;5.35;86.71;99875.88;5005145;28;20049;-82
2023/12/12 03:01:12;;;;;;;4.28;1.20;;;;;;;5.37;86.78;99868.06;4988801;28;20065;-82
2023/12/12 03:03:39;;;;;;;3.00;1.08;;;;;;;5.30;86.92;99876.75;4986826;28;20049;-82
2023/12/12 03:06:09;;;;;;;4.53;1.05;;;;;;;5.30;86.90;99887.19;4995809;28;20129;-82
2023/12/12 03:08:35;;;;;;;6.88;1.55;;;;;;;5.26;87.04;99877.63;4999152;28;20050;-82
2023/12/12 03:11:02;;;;;;;7.70;1.40;;;;;;;5.21;86.73;99870.75;5000479;28;20045;-82
2023/12/12 03:13:29;;;;;;;7.18;1.30;;;;;;;5.20;86.35;99878.56;4992403;28;20057;-82
2023/12/12 03:15:56;;;;;;;4.13;1.00;;;;;;;5.19;85.87;99882.00;4992481;28;20066;-82
2023/12/12 03:18:23;;;;;;;4.55;1.20;;;;;;;5.14;85.58;99874.22;5001718;28;20049;-81
2023/12/12 03:20:50;;;;;;;8.00;1.50;;;;;;;5.14;85.35;99871.63;4987480;28;20049;-82
2023/12/12 03:23:17;;;;;;;8.40;1.48;;;;;;;5.09;85.23;99869.91;4997615;28;20057;-82
2023/12/12 03:25:44;;;;;;;8.55;1.23;;;;;;;5.02;85.84;99874.22;5005548;28;20046;-82
2023/12/12 03:28:11;;;;;;;3.42;1.17;;;;;;;4.92;86.35;99869.91;5002111;28;20050;-82
2023/12/12 03:30:38;;;;;;;2.95;1.00;;;;;;;4.99;85.76;99871.63;4998122;28;20113;-82
2023/12/12 03:33:06;;;;;;;6.72;1.40;;;;;;;4.67;86.16;99870.78;4991176;28;20046;-82
2023/12/12 03:35:33;;;;;;;5.68;1.80;;;;;;;4.79;86.28;99863.84;5001816;28;20052;-81
2023/12/12 03:38:00;;;;;;;2.90;0.93;;;;;;;4.66;85.76;99857.78;5003077;28;20049;-82
2023/12/12 03:40:26;;;;;;;2.92;1.00;;;;;;;4.69;85.21;99862.97;5009886;28;20060;-82
2023/12/12 03:42:53;;;;;;;6.05;1.50;;;;;;;4.72;85.13;99862.13;5003823;28;20045;-82
2023/12/12 03:45:20;;;;;;;8.15;1.25;;;;;;;4.73;84.87;99859.53;4977720;28;20084;-82
2023/12/12 03:47:47;;;;;;;5.95;1.13;;;;;;;4.70;85.19;99854.31;5001217;28;20050;-82
2023/12/12 03:50:14;;;;;;;2.47;1.17;;;;;;;4.76;85.12;99849.13;4996583;28;20107;-81
2023/12/12 03:52:42;;;;;;;6.65;1.70;;;;;;;4.48;85.45;99851.72;4999781;28;20507;-82
2023/12/12 03:55:09;;;;;;;4.03;0.98;;;;;;;4.50;85.69;99841.31;4996559;28;20045;-81
2023/12/12 03:57:36;;;;;;;6.75;0.90;;;;;;;4.48;85.49;99838.72;5003490;28;20069;-81
2023/12/12 04:00:06;;;;;;;5.47;1.17;;;;;;;4.28;85.15;99840.47;4997297;28;20060;-81
2023/12/12 04:02:34;;;;;;;5.45;1.25;;;;;;;4.14;85.89;99838.72;5004077;28;20482;-82
2023/12/12 04:05:00;;;;;;;4.72;0.90;;;;;;;4.42;85.93;99837.84;4986929;28;20056;-80
2023/12/12 04:07:27;;;;;;;5.03;1.48;;;;;;;4.34;85.69;99825.75;5003798;28;20054;-80
2023/12/12 04:09:54;;;;;;;4.80;1.33;;;;;;;4.39;86.21;99823.16;4999204;28;20046;-80
2023/12/12 04:12:21;;;;;;;6.47;1.10;;;;;;;4.40;85.87;99824.88;5001353;28;20465;-80
2023/12/12 04:14:48;;;;;;;3.83;0.90;;;;;;;4.24;86.34;99826.59;5007354;28;20053;-81
2023/12/12 04:17:14;;;;;;;4.28;1.33;;;;;;;4.30;86.48;99817.94;4978468;28;20053;-81
2023/12/12 04:19:41;;;;;;;4.90;1.10;;;;;;;4.11;85.97;99824.84;5009984;28;20046;-82
2023/12/12 04:22:08;;;;;;;7.75;1.02;;;;;;;4.21;86.48;99833.53;5010907;28;20053;-82
2023/12/12 04:24:35;;;;;;;4.93;1.20;;;;;;;3.95;86.98;99834.34;5002251;28;20050;-81
2023/12/12 04:27:02;;;;;;;6.22;1.40;;;;;;;4.21;88.15;99839.56;4995623;28;20058;-81
2023/12/12 04:29:29;;;;;;;6.55;1.40;;;;;;;4.23;88.07;99836.97;5001769;28;20054;-81
2023/12/12 04:31:56;;;;;;;5.60;1.30;;;;;;;4.24;87.19;99843.91;4993685;28;20402;-81
2023/12/12 04:34:23;;;;;;;10.90;2.03;;;;;;;4.18;87.53;99840.44;5001281;28;20046;-82
2023/12/12 04:36:49;;;;;;;4.85;1.30;;;;;;;4.16;87.56;99844.78;5001959;28;20565;-81
2023/12/12 04:39:17;;;;;;;5.80;1.63;;;;;;;4.23;87.56;99842.16;4997271;28;20073;-81
2023/12/12 04:41:44;;;;;;;7.75;2.00;;;;;;;4.24;87.91;99828.31;5006927;28;20052;-82
2023/12/12 04:44:11;;;;;;;5.68;1.55;;;;;;;4.24;87.80;99828.31;4996875;28;20046;-81
2023/12/12 04:46:37;;;;;;;5.10;1.42;;;;;;;4.27;87.62;99838.72;5012818;28;20042;-81
2023/12/12 04:49:08;;;;;;;11.05;2.30;;;;;;;4.18;88.40;99840.44;4997913;28;20121;-79
2023/12/12 04:51:35;;;;;;;8.90;1.50;;;;;;;4.16;88.41;99836.97;4984108;28;20133;-81
2023/12/12 04:54:02;;;;;;;3.28;1.58;;;;;;;4.16;87.78;99831.78;5005909;28;20084;-81
2023/12/12 04:56:28;;;;;;;3.80;1.30;;;;;;;4.08;88.10;99828.28;5010145;28;20058;-81
2023/12/12 04:58:55;;;;;;;5.32;1.67;;;;;;;4.08;89.00;99820.50;4978950;28;20046;-81
2023/12/12 05:01:22;;;;;;;7.55;1.60;;;;;;;4.02;88.96;99823.09;5013468;28;20050;-82
2023/12/12 05:03:49;;;;;;;4.95;1.30;;;;;;;4.03;89.10;99814.47;4995120;28;20078;-80
2023/12/12 05:06:16;;;;;;;6.68;1.75;;;;;;;3.99;88.60;99817.91;5000558;28;20050;-81
2023/12/12 05:08:43;;;;;;;6.35;1.60;;;;;;;3.92;88.48;99816.16;5003441;28;20049;-81
2023/12/12 05:11:13;;;;;;;3.15;1.45;;;;;;;3.79;88.76;99821.31;4993277;28;20132;-82
2023/12/12 05:13:40;;;;;;;6.97;1.77;;;;;;;3.85;89.13;99824.81;5003957;28;20057;-81
2023/12/12 05:16:08;;;;;;;4.95;1.65;;;;;;;3.92;89.12;99821.34;4992998;28;20042;-81
2023/12/12 05:18:57;;;;;;;7.75;1.45;;;;;;;3.87;89.21;99813.56;5012016;28;20051;-81
2023/12/12 05:21:25;;;;;;;3.67;1.17;;;;;;;3.84;88.25;99818.75;5005886;28;20049;-81
2023/12/12 05:23:52;;;;;;;6.32;1.58;;;;;;;3.89;88.17;99810.97;5015293;28;20041;-81
2023/12/12 05:26:19;;;;;;;6.22;1.23;;;;;;;3.81;87.44;99814.41;4997313;28;20057;-81
2023/12/12 05:28:46;;;;;;;6.22;1.73;;;;;;;3.76;87.32;99813.53;5011726;28;20042;-81
2023/12/12 05:31:13;;;;;;;3.80;1.02;;;;;;;3.86;87.90;99808.38;4998707;28;20053;-81
2023/12/12 05:33:40;;;;;;;5.65;1.50;;;;;;;3.82;88.27;99802.28;5005026;28;20046;-81
2023/12/12 05:36:08;;;;;;;4.55;1.20;;;;;;;3.54;88.09;99799.63;5004364;28;20052;-82
2023/12/12 05:38:34;;;;;;;6.63;1.30;;;;;;;3.44;88.63;99797.84;5004925;28;20046;-81
2023/12/12 05:41:06;;;;;;;6.13;1.40;;;;;;;3.74;88.53;99791.03;5007217;28;20046;-82
2023/12/12 05:43:33;;;;;;;9.40;1.60;;;;;;;3.57;87.97;99791.84;5009340;28;20103;-81
2023/12/12 05:46:00;;;;;;;4.60;1.23;;;;;;;3.60;88.92;99791.00;5002664;28;20046;-81
2023/12/12 05:48:27;;;;;;;5.15;1.63;;;;;;;3.79;88.99;99794.50;5013659;28;20045;-81
2023/12/12 05:50:54;;;;;;;4.07;1.27;;;;;;;3.69;87.81;99798.78;5011223;28;20095;-82
2023/12/12 05:53:21;;;;;;;3.35;1.30;;;;;;;3.67;88.51;99792.75;5003865;28;20137;-81
2023/12/12 05:55:48;;;;;;;6.38;2.00;;;;;;;3.73;89.49;99791.91;5009254;28;20057;-81
2023/12/12 05:58:15;;;;;;;9.75;2.13;;;;;;;3.70;89.41;99795.34;5004638;28;20076;-82
2023/12/12 06:00:42;;;;;;;7.88;1.90;;;;;;;3.55;90.09;99795.28;4987328;28;20049;-82
2023/12/12 06:03:09;;;;;;;6.45;1.80;;;;;;;3.67;90.30;99800.53;4999117;28;20050;-81
2023/12/12 06:05:35;;;;;;;9.70;2.20;;;;;;;3.78;90.82;99795.34;5000770;28;20041;-81
2023/12/12 06:08:02;;;;;;;10.32;1.70;;;;;;;3.92;91.13;99800.59;4973196;28;20057;-82
2023/12/12 06:10:29;;;;;;;5.75;2.28;;;;;;;4.02;91.35;99796.28;5006040;28;20050;-81
2023/12/12 06:12:57;;;;;;;4.80;1.88;;;;;;;4.14;91.85;99797.16;5000295;28;20050;-81
2023/12/12 06:15:24;;;;;;;8.38;1.98;;;;;;;4.18;92.10;99791.09;5008959;28;20053;-81
2023/12/12 06:17:50;;;;;;;6.28;1.58;;;;;;;4.24;92.21;99781.56;5010862;28;20072;-81
2023/12/12 06:20:17;;;;;;;9.30;2.40;;;;;;;4.28;92.55;99770.31;5005071;28;20319;-81
2023/12/12 06:22:45;;;;;;;8.77;1.67;;;;;;;4.30;92.79;99765.97;4996505;28;20045;-81
2023/12/12 06:25:12;;;;;;;8.63;1.90;;;;;;;4.36;92.90;99760.81;5012255;28;20058;-81
2023/12/12 06:27:39;;;;;;;5.65;1.52;;;;;;;4.39;93.12;99753.00;5002978;28;20077;-82
2023/12/12 06:30:09;;;;;;;7.68;2.25;;;;;;;4.45;92.89;99745.19;5011615;28;20053;-82
2023/12/12 06:32:36;;;;;;;8.07;2.08;;;;;;;4.48;93.00;99745.19;5013664;28;20050;-79
2023/12/12 06:35:04;;;;;;;7.05;1.63;;;;;;;4.48;93.20;99740.00;4988697;28;20049;-82
2023/12/12 06:37:31;;;;;;;10.98;2.42;;;;;;;4.61;93.17;99745.19;5013342;28;20081;-81
2023/12/12 06:39:59;;;;;;;8.38;2.90;;;;;;;4.62;93.07;99736.50;4998280;28;20046;-81
2023/12/12 06:42:26;;;;;;;9.15;2.78;;;;;;;4.70;93.13;99730.41;5015170;28;20053;-82
2023/12/12 06:44:52;;;;;;;7.78;2.00;;;;;;;4.75;93.12;99726.94;5009406;28;20065;-81
2023/12/12 06:47:19;;;;;;;11.07;1.95;;;;;;;4.77;93.24;99727.81;5000237;28;20062;-82
2023/12/12 06:49:46;;;;;;;9.85;2.08;;;;;;;4.81;93.17;99735.59;4988884;28;20045;-81
2023/12/12 06:52:13;;;;;;;11.48;2.03;;;;;;;4.81;93.19;99734.75;5003238;28;20058;-83
2023/12/12 06:54:40;;;;;;;8.93;1.80;;;;;;;4.77;93.22;99726.06;4982745;28;20112;-80
2023/12/12 06:57:07;;;;;;;6.85;1.48;;;;;;;4.81;93.07;99733.00;4997109;28;20494;-81
2023/12/12 06:59:34;;;;;;;6.18;1.92;;;;;;;4.83;93.08;99739.03;5004205;28;20083;-81
2023/12/12 07:02:01;;;;;;;5.28;2.17;;;;;;;4.85;93.21;99745.13;5009819;28;20140;-82
2023/12/12 07:04:28;;;;;;;7.45;1.92;;;;;;;4.88;93.12;99744.22;5007403;28;20057;-81
2023/12/12 07:06:55;;;;;;;8.45;2.00;;;;;;;4.88;93.13;99747.72;4999324;28;20053;-81
2023/12/12 07:09:22;;;;;;;6.93;1.77;;;;;;;4.86;92.99;99740.78;5005082;28;20056;-81
2023/12/12 07:11:49;;;;;;;13.13;2.00;;;;;;;4.91;92.82;99744.25;5003884;28;20050;-80
2023/12/12 07:14:16;;;;;;;7.70;1.98;;;;;;;4.87;92.87;99740.78;5007370;28;20081;-81
2023/12/12 07:16:43;;;;;;;7.20;1.75;;;;;;;4.86;92.88;99736.44;4992531;28;20037;-81
2023/12/12 07:19:09;;;;;;;9.10;1.95;;;;;;;4.86;92.83;99731.22;5003743;28;20053;-81
2023/12/12 07:21:41;;;;;;;7.43;2.10;;;;;;;4.91;92.97;99728.66;4986486;28;20123;-81
2023/12/12 07:24:10;;;;;;;6.57;1.67;;;;;;;4.90;92.87;99726.06;5001238;28;20048;-81
2023/12/12 07:26:37;;;;;;;8.80;1.85;;;;;;;4.93;92.97;99726.03;5003391;28;20050;-82
2023/12/12 07:29:04;;;;;;;9.45;2.20;;;;;;;4.91;92.77;99727.75;4994609;28;20053;-82
2023/12/12 07:31:30;;;;;;;8.30;1.80;;;;;;;4.97;93.26;99727.75;4992023;28;20050;-81
2023/12/12 07:33:57;;;;;;;10.02;2.45;;;;;;;4.94;92.68;99733.84;4999089;28;20073;-81
2023/12/12 07:36:24;;;;;;;3.72;1.67;;;;;;;4.97;92.85;99723.41;4984670;28;20058;-81
2023/12/12 07:38:51;;;;;;;8.52;2.03;;;;;;;5.00;92.78;99725.16;5002214;28;20056;-82
2023/12/12 07:41:18;;;;;;;8.65;1.95;;;;;;;5.05;92.99;99725.97;4994594;28;20050;-81
2023/12/12 07:43:45;;;;;;;5.50;2.00;;;;;;;5.07;92.89;99731.16;4993550;28;20039;-82
2023/12/12 07:46:12;;;;;;;9.75;2.03;;;;;;;5.09;93.08;99738.09;5006200;28;20141;-81
2023/12/12 07:48:38;;;;;;;10.45;2.17;;;;;;;5.15;93.05;99730.25;4992027;28;20045;-81
2023/12/12 07:51:05;;;;;;;6.68;2.10;;;;;;;5.15;92.95;99725.06;4988257;28;20064;-80
2023/12/12 07:53:32;;;;;;;8.20;2.50;;;;;;;5.17;93.11;99720.75;4990449;28;20057;-82
2023/12/12 07:55:59;;;;;;;7.03;2.20;;;;;;;5.17;92.83;99731.16;4980369;28;20056;-81
2023/12/12 07:58:26;;;;;;;4.47;2.50;;;;;;;5.18;92.83;99726.78;5009049;28;20073;-82
2023/12/12 08:00:52;;;;;;;8.25;2.33;;;;;;;5.19;93.06;99716.38;5002882;28;20046;-82
2023/12/12 08:03:21;;;;;;;7.53;2.63;;;;;;;5.21;93.08;99730.25;4997564;28;20050;-82
2023/12/12 08:05:51;;;;;;;9.85;3.20;;;;;;;5.21;93.01;99735.47;5007324;28;20045;-81
2023/12/12 08:08:18;;;;;;;8.85;3.22;;;;;;;5.25;92.81;99717.22;4998055;28;20057;-81
2023/12/12 08:10:45;;;;;;;8.23;3.50;;;;;;;5.20;92.41;99705.09;5005127;28;20080;-82
2023/12/12 08:13:13;;;;;;;11.10;3.65;;;;;;;5.31;92.32;99698.97;4998723;28;20112;-81
2023/12/12 08:15:40;;;;;;;7.00;2.97;;;;;;;5.27;92.20;99694.66;5007862;28;20056;-81
2023/12/12 08:18:09;;;;;;;9.63;3.40;;;;;;;5.33;92.28;99685.09;5006206;28;20053;-81
2023/12/12 08:20:36;;;;;;;8.27;3.30;;;;;;;5.38;92.43;99674.66;5001571;28;20046;-81
2023/12/12 08:23:03;;;;;;;8.35;2.90;;;;;;;5.37;92.56;99685.94;4990255;28;20046;-81
2023/12/12 08:25:30;;;;;;;9.30;2.53;;;;;;;5.37;92.72;99680.72;4983330;28;20054;-82
2023/12/12 08:27:57;;;;;;;5.32;2.40;;;;;;;5.39;92.55;99695.47;4995579;28;20054;-81
2023/12/12 08:30:24;;;;;;;8.98;3.05;;;;;;;5.39;93.03;99695.47;4978638;28;20212;-81
2023/12/12 08:32:51;;;;;;;5.63;2.10;;;;;;;5.44;93.06;99703.25;5003665;28;20096;-81
2023/12/12 08:35:20;;;;;;;6.38;2.45;;;;;;;5.45;93.07;99699.78;4991394;28;20065;-80
2023/12/12 08:37:47;;;;;;;4.32;2.22;;;;;;;5.48;93.27;99697.16;4993809;28;20141;-83
2023/12/12 08:40:15;;;;;;;8.10;2.78;;;;;;;5.51;93.50;99699.72;4996851;28;20053;-81
2023/12/12 08:42:43;;;;;;;5.88;2.30;;;;;;;5.54;93.59;99694.50;4999658;28;20053;-82
2023/12/12 08:45:16;;;;;;;9.45;3.28;;;;;;;5.43;93.61;99680.72;4841671;28;20129;-82
2023/12/12 08:47:50;;;;;;;12.15;3.03;;;;;;;5.39;93.54;99671.19;4884087;28;20126;-82
2023/12/12 08:50:25;;;;;;;12.25;2.70;;;;;;;5.40;93.56;99675.50;4841783;28;20059;-82
2023/12/12 08:52:59;;;;;;;9.57;2.78;;;;;;;5.43;93.54;99675.50;4891978;28;20064;-80
2023/12/12 08:55:30;;;;;;;8.45;2.47;;;;;;;5.39;93.67;99671.19;4902277;28;20136;-80
2023/12/12 08:58:13;;;;;;;7.90;2.33;;;;;;;5.43;93.57;99659.00;4932668;28;20080;-82
2023/12/12 09:00:41;;;;;;;6.47;2.42;;;;;;;5.48;93.82;99652.91;5000017;28;20053;-81
2023/12/12 09:03:08;;;;;;;9.25;2.55;;;;;;;5.49;93.89;99654.63;5016710;28;20050;-81
2023/12/12 09:05:36;;;;;;;6.32;2.25;;;;;;;5.54;93.70;99655.44;5015009;28;20046;-81
2023/12/12 09:08:03;;;;;;;9.85;3.15;;;;;;;5.56;93.69;99658.94;5002572;28;20136;-80
2023/12/12 09:10:30;;;;;;;8.65;3.40;;;;;;;5.58;93.82;99656.31;5016520;28;20046;-81
2023/12/12 09:12:58;;;;;;;8.05;2.85;;;;;;;5.53;93.86;99658.06;5020749;28;20140;-81
2023/12/12 09:15:25;;;;;;;8.73;2.95;;;;;;;5.55;94.00;99653.75;5014211;28;20103;-81
2023/12/12 09:17:52;;;;;;;9.70;2.97;;;;;;;5.59;93.84;99658.06;5008864;28;20088;-81
2023/12/12 09:20:39;;;;;;;5.63;2.67;;;;;;;5.58;94.00;99649.34;5014455;28;20049;-81
2023/12/12 09:23:06;;;;;;;8.63;3.42;;;;;;;5.58;93.91;99644.16;5014028;28;20049;-81
2023/12/12 09:25:34;;;;;;;9.23;2.97;;;;;;;5.61;94.01;99634.59;5014869;28;20057;-80
2023/12/12 09:28:01;;;;;;;9.20;3.10;;;;;;;5.62;94.24;99636.31;5010623;28;20057;-81
2023/12/12 09:30:28;;;;;;;11.10;3.50;;;;;;;5.67;94.15;99637.16;5015579;28;20057;-81
2023/12/12 09:32:58;;;;;;;7.60;3.50;;;;;;;5.69;94.30;99619.78;5012861;28;20048;-81
2023/12/12 09:35:26;;;;;;;10.15;4.70;;;;;;;5.70;94.02;99631.91;4994321;28;20060;-81
2023/12/12 09:37:58;;;;;;;10.85;4.10;;;;;;;5.74;93.92;99613.66;5011681;28;20149;-81
2023/12/12 09:40:26;;;;;;;6.70;3.13;;;;;;;5.85;94.41;99610.97;5015042;28;20107;-81
2023/12/12 09:42:57;;;;;;;9.45;3.03;;;;;;;5.85;94.21;99604.88;4998251;28;20163;-81
2023/12/12 09:45:25;;;;;;;10.23;3.92;;;;;;;5.87;94.30;99603.16;4996539;28;20054;-81
2023/12/12 09:47:54;;;;;;;6.38;2.85;;;;;;;5.88;94.34;99595.31;4999422;28;20054;-81
2023/12/12 09:50:25;;;;;;;7.80;3.20;;;;;;;5.92;94.54;99589.22;5009301;28;20060;-81
2023/12/12 09:52:53;;;;;;;7.15;2.88;;;;;;;5.94;94.41;99578.78;5013211;28;20041;-81
2023/12/12 09:55:28;;;;;;;5.70;2.55;;;;;;;5.97;94.61;99572.66;5006577;28;20053;-81
2023/12/12 09:57:58;;;;;;;5.80;2.80;;;;;;;6.06;94.20;99562.19;5013455;28;20055;-81
2023/12/12 10:00:28;;;;;;;6.55;2.90;;;;;;;5.99;94.29;99566.59;4994860;28;20062;-81
2023/12/12 10:03:00;;;;;;;7.35;3.05;;;;;;;6.01;94.35;99569.16;5025440;28;20054;-80
2023/12/12 10:05:28;;;;;;;5.97;2.88;;;;;;;6.04;94.26;99563.91;5004858;28;20050;-81
2023/12/12 10:07:55;;;;;;;10.25;3.38;;;;;;;6.07;94.47;99548.28;4995489;28;20077;-81
2023/12/12 10:10:48;;;;;;;6.60;2.45;;;;;;;6.18;94.54;99538.59;5014330;28;20057;-81
2023/12/12 10:13:20;;;;;;;;;;;;;;;6.13;94.38;99540.41;5008638;28;20050;-80
2023/12/12 10:15:55;;;;;;;6.57;2.70;;;;;;;6.18;94.24;99535.13;5073952;22;19964;-79
2023/12/12 10:18:38;;;;;;;7.47;3.00;;;;;;;6.16;94.55;99522.13;4997451;28;20084;-80
2023/12/12 10:21:33;;;;;;;15.38;4.15;;;;;;;6.17;94.40;99534.28;5008810;28;20116;-82
2023/12/12 10:24:11;;;;;;;10.30;3.65;;;;;;;6.14;94.38;99518.69;5011427;28;20076;-81
2023/12/12 10:26:58;;;;;;;;;;;;;;;;;;;;;
2023/12/12 10:29:42;;;;;;;15.85;4.75;;;;;;;6.14;94.41;99507.38;5033869;28;20045;-80
2023/12/12 10:32:22;;;;;;;8.23;3.88;;;;;;;6.16;94.58;99500.44;5022893;28;20144;-81
2023/12/12 10:35:08;;;;;;;7.38;3.70;;;;;;;6.20;94.47;99487.34;5029545;28;20154;-81
2023/12/12 10:37:47;;;;;;;8.68;3.60;;;;;;;6.24;94.67;99467.31;5029710;28;20059;-80
2023/12/12 10:40:21;;;;;;;7.00;3.67;;;;;;;6.20;94.75;99474.31;5030300;28;20057;-81
2023/12/12 10:42:58;;;;;;;11.80;3.92;;;;;;;6.21;94.77;99473.44;5036766;28;20419;-80
2023/12/12 10:45:31;;;;;;;7.88;4.32;;;;;;;6.20;94.73;99476.91;5037131;28;20060;-80
2023/12/12 10:48:17;;;;;;;8.77;3.92;;;;;;;6.26;95.03;99471.63;5025893;28;20390;-80
2023/12/12 10:50:52;;;;;;;11.73;3.70;;;;;;;6.32;94.94;99467.22;5028298;28;20045;-81
2023/12/12 10:53:33;;;;;;;7.93;3.88;;;;;;;6.35;94.83;99464.56;5062576;28;20045;-80
2023/12/12 10:56:01;;;;;;;10.45;4.03;;;;;;;6.36;94.86;99440.25;5013274;28;20450;-80
2023/12/12 10:58:39;;;;;;;9.77;4.00;;;;;;;6.40;94.91;99441.91;5019034;28;20084;-80
2023/12/12 11:01:17;;;;;;;7.45;4.20;;;;;;;6.34;94.58;99434.19;5029827;28;20045;-81
2023/12/12 11:03:48;;;;;;;8.52;3.95;;;;;;;6.34;94.77;99432.44;5035458;28;20054;-81
2023/12/12 11:06:16;;;;;;;6.55;4.00;;;;;;;6.35;95.08;99433.31;5019047;28;20049;-81
2023/12/12 11:08:46;;;;;;;7.75;4.07;;;;;;;6.37;94.96;99426.31;5015866;28;20060;-80
2023/12/12 11:11:14;;;;;;;9.05;4.43;;;;;;;6.41;94.97;99422.78;5041142;28;20083;-80
2023/12/12 11:13:43;;;;;;;11.85;4.35;;;;;;;6.42;94.78;99419.31;5056495;28;20065;-81
2023/12/12 11:16:11;;;;;;;9.18;4.32;;;;;;;6.40;94.87;99400.19;5030835;28;20052;-81
2023/12/12 11:18:39;;;;;;;8.68;4.10;;;;;;;6.41;94.87;99412.38;5017658;28;20059;-81
2023/12/12 11:21:07;;;;;;;8.80;4.20;;;;;;;6.39;94.80;99416.75;5027402;28;20140;-81
2023/12/12 11:23:53;;;;;;;8.23;4.28;;;;;;;6.39;94.94;99404.56;5026220;28;20076;-81
2023/12/12 11:26:26;;;;;;;8.60;4.47;;;;;;;6.42;94.88;99406.28;5037755;28;20083;-81
2023/12/12 11:28:54;;;;;;;7.18;3.88;;;;;;;6.43;94.73;99405.38;5044572;28;20106;-81
2023/12/12 11:31:25;;;;;;;6.65;3.88;;;;;;;6.50;94.75;99399.19;5041079;28;20515;-81
2023/12/12 11:34:09;;;;;;;6.97;3.55;;;;;;;6.53;94.94;99393.94;5041136;28;20069;-81
2023/12/12 11:36:54;;;;;;;7.03;3.60;;;;;;;6.55;94.89;99384.34;5043146;28;20048;-80
2023/12/12 11:39:29;;;;;;;7.57;3.33;;;;;;;6.55;94.82;99384.34;5046680;28;20129;-81
2023/12/12 11:41:57;;;;;;;9.77;4.38;;;;;;;6.54;94.91;99386.97;5037821;28;20132;-81
2023/12/12 11:44:26;;;;;;;7.28;3.63;;;;;;;6.53;94.81;99378.31;5038462;28;20128;-81
2023/12/12 11:46:54;;;;;;;6.07;3.50;;;;;;;6.59;94.87;99375.59;5015610;28;20080;-81
2023/12/12 11:49:22;;;;;;;9.50;3.78;;;;;;;6.64;94.94;99356.41;5030383;28;20084;-81